Valley Peak, Santa Cruz Island Reserve, California Weather observations

Data are for 10 minute period ending at time listed.
 Day   Time   Solar   Ave.   Ave.  Ave.  Vector  Max.   Baro.   Total    
  of    of     Rad.   Air    Rel.  Wind   Wind   Wind  Press.  Precip.   
Year   Day            Temp.  Hum.  Speed  Dir.   Gust                    
2014   (PST)  Kw/m2    F      %     mph   deg.    mph    mb.     in.     
-------------------------------------------------------------------------
 304    5:10   0.00   57.4    96    5.6   167     7.9   964.6    0.00 
 304    5:20   0.00   57.7    97    4.9   176     8.9   964.8    0.00 
 304    5:30   0.00   57.7    97    4.4   179     6.3   964.9    0.00 
 304    5:40   0.00   57.5    97    3.8   160     5.6   964.8    0.00 
 304    5:50   0.00   57.1    98    3.0   148     5.8   964.8    0.00 
 304    6:00   0.00   56.9    98    3.9   146     5.9   964.8    0.00 
 304    6:10   0.00   56.3    97    3.5   128     6.7   964.7    0.00 
 304    6:20   0.00   56.0    96    2.7   139     4.1   964.7    0.00 
 304    6:30   0.00   56.0    91    3.2   157     4.3   964.8    0.00 
 304    6:40   0.00   56.8    88    4.1   172     5.0   964.9    0.00 
 304    6:50   0.01   57.5    86    5.6   170     6.9   965.0    0.00 
 304    7:00   0.02   58.0    86    5.6   177     6.6   965.1    0.00 
 304    7:10   0.04   58.4    86    3.2   160     5.3   965.1    0.00 
 304    7:20   0.05   58.8    85    2.9   158     5.1   965.2    0.00 
 304    7:30   0.07   59.3    85    2.0   158     5.7   965.2    0.00 
 304    7:40   0.06   59.7    85    3.4   172     5.3   965.4    0.00 
 304    7:50   0.04   59.5    86    3.0   162     5.5   965.5    0.00 
 304    8:00   0.03   59.5    87    3.2   166     5.7   965.6    0.00 
 304    8:10   0.04   59.4    88    2.7   160     4.6   965.6    0.00 
 304    8:20   0.07   59.5    89    2.1   144     4.5   965.6    0.00 
 304    8:30   0.06   59.7    89    2.8   168     5.6   965.6    0.00 
 304    8:40   0.04   59.0    90    5.3   174     7.5   965.7    0.00 
 304    8:50   0.07   59.0    90    5.1   176     7.4   965.7    0.00 
 304    9:00   0.09   59.6    88    4.1   169     6.3   965.6    0.00 
 304    9:10   0.13   60.3    86    5.2   173     7.5   965.5    0.00 
 304    9:20   0.20   61.4    82    4.8   164     8.5   965.4    0.00 
 304    9:30   0.21   62.1    79    5.0   167     8.3   965.3    0.00 
 304    9:40   0.20   62.8    77    4.9   170     8.1   965.3    0.00 
 304    9:50   0.23   62.8    76    3.6   168     7.2   965.4    0.00 
 304   10:00   0.20   62.8    76    3.4   172     6.7   965.4    0.00 
 304   10:10   0.25   63.4    74    3.4   147     6.8   965.2    0.00 
 304   10:20   0.21   64.6    72    3.6   142     8.6   965.1    0.00 
 304   10:30   0.22   64.6    72    3.1   142     7.7   964.9    0.00 
 304   10:40   0.35   64.9    72    3.3   146     7.7   964.7    0.00 
 304   10:50   0.42   66.0    70    4.6   165     8.7   964.5    0.00 
 304   11:00   0.40   66.3    70    5.2   147    10.3   964.4    0.00 
 304   11:10   0.44   66.7    68    4.4   150     8.4   964.2    0.00 
 304   11:20   0.45   67.3    68    4.6   141    10.0   964.1    0.00 
 304   11:30   0.42   66.8    69    4.3   145     9.9   963.9    0.00 
 304   11:40   0.36   67.0    68    4.7   149    10.7   963.8    0.00 
 304   11:50   0.26   65.7    70    4.9   142     9.6   963.7    0.00 
 304   12:00   0.26   64.4    74    4.8   140    11.5   963.5    0.00 
 304   12:10   0.23   64.5    74    4.8   142    10.7   963.3    0.00 
 304   12:20   0.23   63.9    76    5.0   149     8.8   963.1    0.00 
 304   12:30   0.29   64.0    75    6.3   148    10.2   962.8    0.00 
 304   12:40   0.47   66.2    69    4.8   144    10.2   962.6    0.00 
 304   12:50   0.46   67.6    66    4.3   144     9.6   962.4    0.00 
 304   13:00   0.43   67.9    65    5.7   139    11.9   962.3    0.00 
 304   13:10   0.32   66.5    67    5.0   145    12.3   962.1    0.00 
 304   13:20   0.28   65.0    71    5.4   150    12.3   962.1    0.00 
 304   13:30   0.24   63.9    74    6.3   148    11.1   962.1    0.00 
 304   13:40   0.23   63.2    76    5.6   147    10.8   961.9    0.00 
 304   13:50   0.22   62.5    78    5.0   153    10.4   961.9    0.00 
 304   14:00   0.34   64.0    76    4.1   154    10.6   961.9    0.00 
 304   14:10   0.31   64.7    75    4.4   157    10.4   961.8    0.00 
 304   14:20   0.20   63.4    73    4.9   159    10.7   961.8    0.00 
 304   14:30   0.20   62.9    74    4.3   156    11.5   961.6    0.00 
 304   14:40   0.18   61.8    77    5.7   159    12.7   961.6    0.00 
 304   14:50   0.22   62.7    75    7.7   159    14.5   961.6    0.00 
 304   15:00   0.36   64.1    71    5.7   155    13.2   961.5    0.00 
 304   15:10   0.13   64.5    70    7.0   162    15.9   961.3    0.00 
 304   15:20   0.05   60.0    82    6.0   158    13.2   961.5    0.00 
 304   15:30   0.06   59.0    84   11.7   185    19.4   961.6    0.00 
 304   15:40   0.06   58.7    81   10.4   183    20.2   961.5    0.00 
 304   15:50   0.05   58.6    81    8.3   167    15.3   961.3    0.00 
 304   16:00   0.04   58.6    82   10.8   186    19.0   961.3    0.00 
 304   16:10   0.03   58.3    83    9.6   181    18.4   961.3    0.00 
 304   16:20   0.03   57.9    84   11.5   190    16.8   961.5    0.00 
 304   16:30   0.02   57.9    84   10.2   184    16.0   961.4    0.00 
 304   16:40   0.01   57.8    83    6.2   168    12.6   961.2    0.00 
 304   16:50   0.00   57.7    82   10.5   187    16.1   961.1    0.00 
 304   17:00   0.00   57.5    83   13.6   192    20.8   961.0    0.00 
 304   17:10   0.00   57.5    84   11.6   185    17.5   961.0    0.00 
 304   17:20   0.00   57.5    85    8.5   173    15.1   960.8    0.00 
 304   17:30   0.00   57.5    86    7.3   171    16.1   960.7    0.00 
 304   17:40   0.00   57.5    87    8.5   166    15.2   960.7    0.00 
 304   17:50   0.00   57.5    88    9.3   162    19.4   960.8    0.00 
 304   18:00   0.00   57.5    89    8.7   161    16.9   960.9    0.00 
 304   18:10   0.00   57.4    90   10.2   164    16.7   961.0    0.00 
 304   18:20   0.00   57.4    91   10.2   165    19.5   961.1    0.00 
 304   18:30   0.00   57.5    92    7.8   171    17.5   961.0    0.00 
 304   18:40   0.00   57.5    93    9.8   162    20.1   960.7    0.00 
 304   18:50   0.00   57.5    93    8.2   155    19.5   960.5    0.00 
 304   19:00   0.00   57.5    93    9.5   159    23.7   960.5    0.00 
 304   19:10   0.00   57.5    92    8.6   162    19.9   960.3    0.00 
 304   19:20   0.00   57.4    92    7.9   155    18.8   960.0    0.00 
 304   19:30   0.00   57.4    91    8.6   163    18.4   959.7    0.00 
 304   19:40   0.00   57.5    91    9.4   158    18.2   959.8    0.00 
 304   19:50   0.00   57.6    91    9.3   153    21.9   959.9    0.00 
 304   20:00   0.00   57.7    90   10.9   156    24.1   959.8    0.00 
 304   20:10   0.00   57.5    92   14.8   166    34.5   959.7    0.06 
 304   20:20   0.00   55.4    96   20.5   185    36.3   959.8    0.12 
 304   20:30   0.00   54.9    99   19.5   188    27.6   959.8    0.14 
 304   20:40   0.00   54.8   100   21.6   204    39.1   959.9    0.15 
 304   20:50   0.00   54.4   100   16.5   265    27.6   960.6    0.06 
 304   21:00   0.00   53.5   100   12.4   310    21.0   960.7    0.02 
 304   21:10   0.00   53.2    99    9.5   304    16.6   960.8    0.01 
 304   21:20   0.00   53.0    98    8.9   352    14.4   960.8    0.01 
 304   21:30   0.00   52.4    98   11.8   333    21.4   960.8    0.02 
 304   21:40   0.00   51.9    96   11.8   328    22.7   960.7    0.01 
 304   21:50   0.00   51.7    92   12.3   315    24.3   960.8    0.00 
 304   22:00   0.00   51.7    91   11.4   315    20.2   960.8    0.00 
 304   22:10   0.00   51.9    92   10.3   327    20.0   961.1    0.00 
 304   22:20   0.00   52.1    92   12.1   329    19.7   960.9    0.00 
 304   22:30   0.00   51.6    96   12.4    14    21.3   960.5    0.00 
 304   22:40   0.00   51.7    98   17.1    24    21.4   960.1    0.00 
 304   22:50   0.00   51.9    99   13.4    18    19.7   960.3    0.00 
 304   23:00   0.00   52.2   100   13.7    21    19.2   960.3    0.00 
 304   23:10   0.00   52.2   100   10.2     1    16.7   960.6    0.00 
 304   23:20   0.00   51.9   100    9.6   331    13.4   960.7    0.00 
 304   23:30   0.00   51.8   100    8.9   289    12.1   960.9    0.00 
 304   23:40   0.00   52.1    97    7.6   252     9.5   960.9    0.00 
 304   23:50   0.00   51.9    97    9.1   239    13.7   961.1    0.00 
 305    0:00   0.00   51.7    98   10.0   252    14.5   961.2    0.00 
 305    0:10   0.00   51.8    97   12.5   262    16.7   961.3    0.00 
 305    0:20   0.00   51.7    97   10.7   272    17.5   961.5    0.00 
 305    0:30   0.00   51.9    93    9.6   258    14.5   961.5    0.00 
 305    0:40   0.00   52.1    92   11.2   250    15.7   961.6    0.00 
 305    0:50   0.00   52.1    91   14.5   242    21.0   961.6    0.00 
 305    1:00   0.00   52.1    92   15.1   228    23.4   961.6    0.00 
 305    1:10   0.00   51.6    93   11.7   227    17.7   961.8    0.00 
 305    1:20   0.00   51.4    94   14.3   232    20.0   961.8    0.00 
 305    1:30   0.00   51.5    93   13.5   240    20.2   961.6    0.00 
 305    1:40   0.00   51.3    93   10.4   250    15.9   961.9    0.00 
 305    1:50   0.00   51.3    92   10.8   253    14.8   962.0    0.00 
 305    2:00   0.00   51.4    93   12.5   254    18.0   961.9    0.00 
 305    2:10   0.00   51.6    93   11.8   261    17.0   961.7    0.00 
 305    2:20   0.00   51.6    93   10.2   259    13.5   961.7    0.00 
 305    2:30   0.00   51.6    92   10.7   257    13.4   961.7    0.00 
 305    2:40   0.00   51.6    92   10.2   255    13.0   961.7    0.00 
 305    2:50   0.00   51.8    91   11.1   257    15.5   961.7    0.00 
 305    3:00   0.00   52.1    89   11.6   253    16.1   961.6    0.00 
 305    3:10   0.00   52.2    89   10.0   263    13.2   961.6    0.00 
 305    3:20   0.00   52.3    89   10.7   260    14.2   961.7    0.00 
 305    3:30   0.00   52.3    89   10.0   254    14.2   961.8    0.00 
 305    3:40   0.00   52.6    89   10.1   242    13.4   961.9    0.00 
 305    3:50   0.00   52.5    90   10.9   241    17.8   961.9    0.00 
 305    4:00   0.00   52.4    92   13.8   245    18.8   961.9    0.00 
 305    4:10   0.00   52.3    91   12.6   267    19.2   962.0    0.00 
 305    4:20   0.00   51.9    91   14.4   283    20.5   962.0    0.00 
 305    4:30   0.00   51.8    90   14.5   283    19.6   962.2    0.00 
 305    4:40   0.00   51.9    89   14.6   278    20.5   962.3    0.00 
 305    4:50   0.00   52.0    90   12.2   283    17.7   962.4    0.00 
 305    5:00   0.00   51.8    91   12.0   284    19.3   962.4    0.00 

Return to Valley Peak, Santa Cruz Island Reserve graphs page.


Western Regional Climate Center,wrcc@dri.edu